Flight Track Log - Related Links

Times and Time Zones

All times are in EDT time to prevent confusion due to time zone crossing. See the EGF4174 flight status page for this flight to view local times or setup timezone preferences in your user account.

Time Position Orientation Groundspeed Altitude Reporting Facility
EDT Latitude Longitude Course Direction KTS MPH feet Rate Location/Type
Tue 05:46:37 PM 43.1089 -76.0950 286° West 146 168 1,100  Level Boston Center
Tue 05:47:32 PM 43.1294 -76.0392 63° Northeast 212 244 2,900 2,121 Climbing Boston Center
Tue 05:48:33 PM 43.1625 -76.1067 304° West 269 310 5,200 2,029 Climbing Boston Center
Tue 05:49:00 PM 43.1833 -76.4229 270° West  Level FlightAware Approximate
Tue 05:50:00 PM 43.2040 -76.5280 281° West  Level FlightAware Approximate
Tue 05:51:00 PM 43.2222 -76.6425 286° West  Level FlightAware Approximate
Tue 05:51:02 PM 43.1625 -76.3589 270° West 272 313 10,000  Level Cleveland Center
Tue 05:52:00 PM 43.2464 -76.7551 286° West  Level FlightAware Approximate
Tue 05:52:02 PM 43.1589 -76.4844 268° West 302 348 11,600  Level Cleveland Center
Tue 05:53:03 PM 43.1547 -76.6072 267° West 324 373 13,300 1,450 Climbing Cleveland Center
Tue 05:54:02 PM 43.1525 -76.7242 269° West 330 380 14,500 1,412 Climbing Cleveland Center
Tue 05:55:02 PM 43.1503 -76.8522 269° West 336 387 16,100 1,550 Climbing Cleveland Center
Tue 05:56:02 PM 43.1483 -76.9806 269° West 336 387 17,600 1,700 Climbing Cleveland Center
Tue 05:57:02 PM 43.1458 -77.1117 269° West 346 398 19,500 1,850 Climbing Cleveland Center
Tue 05:58:02 PM 43.1433 -77.2397 269° West 346 398 21,300 1,250 Climbing Cleveland Center
Tue 05:59:02 PM 43.1408 -77.3708 269° West 346 398 22,000 350 Climbing Cleveland Center
Tue 06:00:02 PM 43.1367 -77.5161 268° West 364 419 22,000  Level Cleveland Center
Tue 06:01:03 PM 43.1342 -77.6700 269° West 390 449 22,000  Level Cleveland Center
Tue 06:02:03 PM 43.1317 -77.8181 269° West 398 458 22,000  Level Cleveland Center
Tue 06:03:02 PM 43.1267 -77.9689 267° West 403 464 22,000  Level Cleveland Center
Tue 06:04:03 PM 43.1239 -78.1200 269° West 403 464 22,000  Level Cleveland Center
Tue 06:05:03 PM 43.1228 -78.2708 269° West 403 464 22,000  Level Cleveland Center
Tue 06:06:02 PM 43.1219 -78.4414 270° West 403 464 22,000  Level Cleveland Center
Tue 06:07:03 PM 43.1183 -78.5953 268° West 403 464 22,000  Level Cleveland Center
Tue 06:08:03 PM 43.1125 -78.7489 267° West 403 464 22,000  Level Cleveland Center
Tue 06:09:32 PM 43.1000 -78.9500 265° West 390 449 22,000  Level Toronto Center
Tue 06:10:32 PM 43.1000 -79.1000 270° West 390 449 22,000  Level Toronto Center
Tue 06:11:32 PM 43.1000 -79.2500 270° West 380 437 22,000 150 Level Toronto Center
Tue 06:12:32 PM 43.0833 -79.3833 260° West 380 437 22,300 850 Climbing Toronto Center
Tue 06:13:32 PM 43.0833 -79.5500 270° West 390 449 23,700 1,800 Climbing Toronto Center
Tue 06:14:32 PM 43.0833 -79.6833 270° West 370 426 25,900 2,100 Climbing Toronto Center
Tue 06:15:32 PM 43.0833 -79.8000 270° West 340 391 27,900 1,750 Climbing Toronto Center
Tue 06:16:32 PM 43.0667 -79.9333 260° West 320 368 29,400 1,300 Climbing Toronto Center
Tue 06:17:32 PM 43.0667 -80.0500 270° West 320 368 30,500 1,050 Climbing Toronto Center
Tue 06:18:32 PM 43.0667 -80.1833 270° West 330 380 31,500 750 Climbing Toronto Center
Tue 06:19:32 PM 43.0667 -80.3000 270° West 340 391 32,000 250 Climbing Toronto Center
Tue 06:20:32 PM 43.0667 -80.4333 270° West 340 391 32,000  Level Toronto Center
Tue 06:21:32 PM 43.0500 -80.5667 260° West 350 403 32,000  Level Toronto Center
Tue 06:22:32 PM 43.0500 -80.6833 270° West 350 403 32,000  Level Toronto Center
Tue 06:23:32 PM 43.0333 -80.8167 260° West 340 391 32,000  Level Toronto Center
Tue 06:24:32 PM 43.0333 -80.9500 270° West 340 391 32,000  Level Toronto Center
Tue 06:25:32 PM 43.0167 -81.1000 261° West 350 403 32,000  Level Toronto Center
Tue 06:26:32 PM 43.0167 -81.2333 270° West 350 403 32,000  Level Toronto Center
Tue 06:27:32 PM 43.0167 -81.3667 270° West 350 403 32,000  Level Toronto Center
Tue 06:28:32 PM 43.0167 -81.4833 270° West 350 403 32,000  Level Toronto Center
Tue 06:29:32 PM 43.0167 -81.6167 270° West 350 403 32,000  Level Toronto Center
Tue 06:30:32 PM 43.0167 -81.7500 270° West 350 403 32,000  Level Toronto Center
Tue 06:31:32 PM 43.0167 -81.8833 270° West 340 391 32,000  Level Toronto Center
Tue 06:32:32 PM 43.0000 -82.0000 259° West 350 403 32,000  Level Toronto Center
Tue 06:33:32 PM 43.0000 -82.1333 270° West 340 391 32,000  Level Toronto Center
Tue 06:34:32 PM 43.0000 -82.2833 270° West 340 391 32,000  Level Toronto Center
Tue 06:35:32 PM 43.0000 -82.3833 270° West 340 391 32,000  Level Toronto Center
Tue 06:36:32 PM 43.0000 -82.5333 270° West 340 391 32,000  Level Toronto Center
Tue 06:37:26 PM 43.0003 -82.6469 270° West 349 402 32,000  Level Cleveland Center
Tue 06:38:26 PM 42.9936 -82.7803 266° West 349 402 32,000  Level Cleveland Center
Tue 06:39:26 PM 42.9869 -82.9047 266° West 349 402 32,000  Level Cleveland Center
Tue 06:40:26 PM 42.9800 -83.0381 266° West 349 402 32,000  Level Cleveland Center
Tue 06:41:26 PM 42.9711 -83.1625 264° West 349 402 32,000  Level Cleveland Center
Tue 06:42:26 PM 42.9639 -83.2928 266° West 349 402 32,000  Level Cleveland Center
Tue 06:43:26 PM 42.9589 -83.4231 267° West 349 402 32,000  Level Cleveland Center
Tue 06:44:26 PM 42.9472 -83.5531 263° West 349 402 32,000  Level Cleveland Center
Tue 06:45:26 PM 42.9417 -83.6833 267° West 349 402 32,000  Level Cleveland Center
Tue 06:46:26 PM 42.9319 -83.8133 264° West 349 402 32,000  Level Cleveland Center
Tue 06:47:26 PM 42.9242 -83.9403 265° West 349 402 32,000  Level Cleveland Center
Tue 06:49:12 PM 42.9114 -84.1719 266° West 344 396 32,000  Level Chicago Center
Tue 06:50:14 PM 42.9031 -84.3025 265° West 341 392 32,000  Level Chicago Center
Tue 06:51:16 PM 42.8953 -84.4289 265° West 342 394 32,000  Level Chicago Center
Tue 06:52:18 PM 42.8858 -84.5572 264° West 341 392 32,000  Level Chicago Center
Tue 06:53:20 PM 42.8708 -84.7125 263° West 345 397 32,000  Level Chicago Center
Tue 06:54:22 PM 42.8572 -84.8397 262° West 341 392 32,000  Level Chicago Center
Tue 06:55:24 PM 42.8439 -84.9681 262° West 344 396 32,000  Level Chicago Center
Tue 06:56:26 PM 42.8275 -85.0953 260° West 343 395 32,000  Level Chicago Center
Tue 06:57:28 PM 42.8042 -85.2217 256° West 343 395 32,000  Level Chicago Center
Tue 06:58:30 PM 42.7811 -85.3486 256° West 344 396 32,000  Level Chicago Center
Tue 06:59:32 PM 42.7600 -85.4747 257° West 344 396 32,000 -387 Level Chicago Center
Tue 07:00:34 PM 42.7314 -85.6275 256° West 345 397 31,200 -1,500 Descending Chicago Center
Tue 07:01:36 PM 42.7078 -85.7625 257° West 358 412 28,900 -2,274 Descending Chicago Center
Tue 07:02:38 PM 42.6833 -85.9008 257° West 369 425 26,500 -2,274 Descending Chicago Center
Tue 07:03:40 PM 42.6569 -86.0400 256° West 376 433 24,200 -2,274 Descending Chicago Center
Tue 07:04:42 PM 42.6333 -86.1736 257° West 366 421 21,800 -2,177 Descending Chicago Center
Tue 07:05:44 PM 42.6078 -86.3058 255° West 362 417 19,700 -1,935 Descending Chicago Center
Tue 07:06:46 PM 42.5844 -86.4303 256° West 347 399 17,800 -1,887 Descending Chicago Center
Tue 07:07:48 PM 42.5608 -86.5553 256° West 343 395 15,800 -1,968 Descending Chicago Center
Tue 07:08:51 PM 42.5344 -86.7031 256° West 337 388 13,700 -1,776 Descending Chicago Center
Tue 07:09:53 PM 42.5119 -86.8203 255° West 324 373 12,100 -1,452 Descending Chicago Center
Tue 07:10:55 PM 42.4892 -86.9383 255° West 324 373 10,700 -1,016 Descending Chicago Center
Tue 07:11:57 PM 42.4664 -87.0533 255° West 319 367 10,000 -339 Descending Chicago Center
Tue 07:12:59 PM 42.4414 -87.1656 253° West 314 361 10,000 -484 Level Chicago Center
Tue 07:14:01 PM 42.4125 -87.2689 249° West 248 285 9,000 -1,210 Descending Chicago Center
Tue 07:15:03 PM 42.3600 -87.3192 215° Southwest 245 282 7,500 -1,306 Descending Chicago Center
Tue 07:16:05 PM 42.2956 -87.3592 205° Southwest 244 281 6,300 -1,065 Descending Chicago Center
Tue 07:17:07 PM 42.2339 -87.4011 207° Southwest 249 287 5,300 -968 Descending Chicago Center
Tue 07:18:09 PM 42.1633 -87.4161 189° South 256 295 4,300 -586 Descending Chicago Center
Tue 07:19:20 PM 42.0667 -87.4333 188° South 267 307 4,000 -137 Descending Chicago TRACON
Tue 07:20:20 PM 42.0000 -87.4500 191° South 244 281 4,000  Level Chicago TRACON
Tue 07:21:20 PM 41.9833 -87.5167 251° West 217 250 4,000 50 Level Chicago TRACON
Tue 07:22:21 PM 41.9833 -87.6000 270° West 195 224 4,100 98 Climbing Chicago TRACON

Login

Don't have an account? Register now (free) for customized features, flight alerts, and more!